Date,TemperatureHighF,TemperatureAvgF,TemperatureLowF,DewpointHighF,DewpointAvgF,DewpointLowF,HumidityHigh,HumidityAvg,HumidityLow,PressureMaxIn,PressureMinIn,WindSpeedMaxMPH,WindSpeedAvgMPH,GustSpeedMaxMPH,PrecipitationSumIn
2014-1-1,70.9,54.7,40.1,38.0,32.9,26.6,73,47,21,30.11,30.02,12,1,14,0.00
2014-1-2,73.5,57.8,43.1,37.4,31.7,26.5,55,38,22,30.09,29.98,14,1,14,0.00
2014-1-3,68.8,54.8,44.8,42.0,34.7,29.0,67,48,28,30.00,29.88,11,0,11,0.00
2014-1-4,69.8,53.9,40.9,44.7,36.0,32.0,74,53,29,30.02,29.91,11,1,11,0.00
2014-1-5,71.3,55.2,45.8,44.0,31.6,20.6,81,44,21,30.14,30.02,13,1,13,0.00
2014-1-6,67.6,54.9,44.3,45.5,37.2,31.7,77,53,31,30.21,30.09,9,1,9,0.00
2014-1-7,65.0,52.1,45.4,46.6,42.0,37.0,95,71,37,30.14,30.05,8,0,8,0.00
2014-1-8,59.9,49.1,42.6,50.3,45.6,41.3,96,88,68,30.16,30.07,6,0,6,0.01
2014-1-9,63.4,49.5,41.3,51.5,44.7,40.5,99,85,58,30.19,30.10,8,0,8,0.00
2014-1-10,66.8,51.3,43.2,49.4,44.2,39.9,92,78,51,30.22,30.10,13,0,13,0.00
2014-1-11,59.9,50.4,42.2,51.9,45.4,39.0,95,83,60,30.24,30.09,11,0,12,0.00
2014-1-12,64.7,49.2,39.5,49.3,40.1,33.3,98,75,38,30.30,30.20,5,0,9,0.01
2014-1-13,69.8,54.2,38.2,36.7,34.0,31.0,75,50,27,30.38,30.27,20,2,20,0.00
2014-1-14,74.4,58.1,45.2,36.6,33.0,28.9,63,41,21,30.38,30.25,17,2,17,0.00
2014-1-15,77.2,62.9,50.8,33.9,30.1,25.5,46,30,19,30.25,30.12,10,2,18,0.00
2014-1-16,80.3,64.4,54.8,32.0,28.2,24.0,36,26,14,30.15,30.03,15,1,17,0.00
2014-1-17,85.3,59.9,43.2,31.9,27.9,19.5,54,33,11,30.11,30.02,13,0,13,0.00
2014-1-18,78.8,60.2,46.0,36.3,28.0,22.8,49,31,14,30.08,29.98,13,1,13,0.00
2014-1-19,79.6,58.3,47.6,39.1,28.6,19.6,68,35,13,30.06,29.99,12,0,12,0.00
2014-1-20,77.2,53.2,39.6,43.0,31.4,25.7,71,47,16,30.18,30.05,3,0,7,0.00
2014-1-21,74.9,56.3,42.2,32.3,29.5,25.5,59,38,17,30.17,30.06,11,0,12,0.00
2014-1-22,77.2,55.0,41.5,45.7,31.1,23.5,93,46,16,30.10,29.88,7,0,11,0.00
2014-1-23,69.1,50.2,36.3,50.1,39.8,28.0,96,72,23,29.96,29.81,12,1,12,0.00
2014-1-24,65.5,50.4,40.8,52.9,46.5,40.0,98,88,63,30.21,29.96,10,0,10,0.01
2014-1-25,77.2,58.8,45.4,47.7,39.7,29.0,97,54,17,30.21,30.05,10,1,15,0.01
2014-1-26,71.5,56.2,47.7,52.1,38.6,29.8,95,55,26,30.07,29.97,10,0,10,0.00
2014-1-27,67.8,52.0,44.1,50.5,47.5,43.0,97,86,50,30.14,30.02,9,0,9,0.00
2014-1-28,71.8,55.4,45.8,54.5,49.1,44.7,96,82,46,30.19,30.10,9,0,9,0.01
2014-1-29,69.6,59.3,52.8,59.0,55.9,51.7,97,89,66,30.16,29.89,6,0,8,0.00
2014-1-30,60.7,54.5,49.9,55.8,50.2,44.0,97,86,67,29.89,29.80,16,1,16,0.15
2014-1-31,63.4,49.8,40.3,49.8,41.1,24.0,98,76,29,30.03,29.86,14,0,14,0.02
2014-2-1,61.3,45.4,33.8,41.6,37.9,32.2,95,78,42,30.12,30.02,6,0,10,0.01
2014-2-2,53.8,45.1,37.6,46.0,41.0,35.5,95,86,71,30.04,29.80,13,1,13,0.20
2014-2-3,59.5,47.1,38.2,44.9,39.9,35.0,96,77,56,30.04,29.90,12,0,12,0.00
2014-2-4,57.2,44.6,35.5,43.0,38.1,33.7,95,79,55,30.12,30.02,6,0,9,0.00
2014-2-5,59.0,46.8,37.9,45.8,40.2,35.0,94,79,50,30.17,30.04,11,0,11,0.03
2014-2-6,51.7,48.3,45.5,49.7,46.5,44.4,97,93,85,30.04,29.84,17,2,17,0.55
2014-2-7,55.4,51.8,48.5,53.1,50.7,47.4,98,96,92,30.09,29.97,6,0,7,0.24
2014-2-8,59.0,55.3,51.7,58.7,54.7,51.0,99,98,94,30.17,30.07,8,1,14,0.22
2014-2-9,60.1,57.0,55.1,58.0,56.0,54.8,99,97,88,30.16,30.07,15,1,17,0.45
2014-2-10,62.0,56.0,52.6,57.2,54.3,51.2,99,94,78,30.24,30.09,11,1,11,0.06
2014-2-11,64.3,52.8,46.4,54.5,49.7,45.6,98,90,67,30.20,30.11,8,0,8,0.00
2014-2-12,66.8,52.9,45.2,53.2,49.0,44.7,99,88,59,30.22,30.12,11,0,11,0.01
2014-2-13,73.2,57.5,46.8,57.7,51.1,44.8,97,81,50,30.16,30.03,11,0,11,0.00
2014-2-14,66.3,55.5,48.9,57.5,53.0,48.0,99,92,70,30.11,30.00,11,0,11,0.02
2014-2-15,60.7,53.4,48.6,55.5,52.0,48.0,99,95,82,30.04,29.93,11,1,13,0.02
2014-2-16,69.4,57.6,49.4,53.9,48.7,39.0,99,75,40,30.13,30.01,13,1,13,0.05
2014-2-17,66.9,53.2,42.6,49.7,44.4,39.9,92,74,49,30.11,30.03,12,0,13,0.00
2014-2-18,69.6,53.9,45.7,51.1,46.0,42.6,94,77,40,30.14,30.02,12,1,12,0.00
2014-2-19,68.3,54.0,45.2,52.7,47.4,42.7,96,80,52,30.14,30.03,7,0,11,0.01
2014-2-20,70.1,56.4,44.6,44.7,40.8,34.3,93,60,28,30.15,30.04,13,1,13,0.00
2014-2-21,75.6,57.8,44.5,48.2,41.8,36.5,85,58,27,30.05,29.92,12,1,12,0.00
2014-2-22,72.3,55.1,45.1,51.4,45.7,40.0,94,73,36,29.95,29.88,6,0,10,0.00
2014-2-23,71.6,53.3,43.9,52.8,46.9,43.0,98,82,43,29.96,29.89,10,0,10,0.00
2014-2-24,73.9,53.1,41.3,53.0,46.6,39.9,97,81,34,29.95,29.88,12,1,12,0.01
2014-2-25,62.7,53.6,48.6,50.8,48.3,46.7,95,83,62,29.95,29.88,18,2,18,0.00
2014-2-26,62.3,55.2,51.4,57.0,52.5,47.3,97,91,72,29.93,29.68,6,1,12,0.84
2014-2-27,66.4,58.2,51.7,54.9,51.3,44.9,97,79,55,29.88,29.49,15,1,15,0.01
2014-2-28,61.8,54.3,50.1,55.9,52.8,44.5,99,95,54,29.49,29.33,9,0,14,1.60
2014-3-1,69.8,57.5,51.0,56.3,51.0,47.9,99,81,47,29.77,29.42,13,2,14,0.38
2014-3-2,57.5,54.9,51.7,55.9,52.6,48.5,97,92,84,30.14,29.77,15,1,15,0.07
2014-3-3,63.5,54.6,48.9,55.0,51.7,48.3,98,91,71,30.14,30.03,5,0,10,0.10
2014-3-4,67.3,56.7,52.6,59.1,54.8,51.8,99,94,70,30.06,29.99,11,0,11,0.03
2014-3-5,70.4,59.0,52.9,59.3,54.8,52.6,99,87,61,30.07,30.00,11,1,13,0.00
2014-3-6,66.9,58.2,50.2,59.0,54.9,49.1,99,90,61,30.14,30.02,6,1,11,0.15
2014-3-7,68.9,55.0,44.3,54.8,49.3,43.8,99,83,54,30.12,30.04,7,0,8,0.01
2014-3-8,79.2,59.0,45.7,53.3,48.6,43.5,97,72,32,30.14,30.04,12,1,12,0.01
2014-3-9,81.1,64.7,54.7,52.6,47.4,38.6,88,57,23,30.12,30.03,11,1,11,0.00
2014-3-10,74.2,60.2,50.7,54.0,49.7,43.0,97,71,45,30.16,30.05,12,0,12,0.00
2014-3-11,72.0,59.3,47.6,44.3,38.0,29.7,72,49,24,30.13,29.94,12,2,17,0.00
2014-3-12,76.3,62.0,46.8,42.6,36.9,32.0,74,43,22,30.00,29.92,11,2,17,0.00
2014-3-13,79.6,59.1,45.8,53.1,41.5,33.4,92,56,21,30.03,29.92,11,0,11,0.00
2014-3-14,70.8,56.9,49.9,53.9,49.9,46.1,95,79,47,30.18,30.03,8,0,9,0.00
2014-3-15,80.9,60.3,46.7,55.5,49.9,44.8,96,74,33,30.26,30.16,10,0,10,0.00
2014-3-16,81.2,61.3,47.3,53.5,48.2,42.2,96,67,28,30.25,30.14,12,1,12,0.00
2014-3-17,68.1,54.4,44.2,53.3,48.1,43.4,99,81,53,30.19,29.91,8,0,11,0.01
2014-3-18,73.3,56.1,42.3,46.5,41.3,33.4,97,64,28,29.93,29.83,11,0,11,0.00
2014-3-19,79.0,59.8,46.7,44.2,38.9,34.9,84,49,23,30.02,29.91,15,1,15,0.00
2014-3-20,72.1,55.4,42.5,51.3,44.7,38.6,91,71,34,30.02,29.91,9,0,12,0.00
2014-3-21,63.2,53.2,46.2,49.1,46.8,43.4,96,80,56,29.97,29.91,15,2,15,0.00
2014-3-22,65.0,54.3,46.0,48.8,46.9,43.6,93,77,55,30.10,29.96,12,1,12,0.00
2014-3-23,66.6,53.8,47.1,53.0,48.6,45.2,95,83,60,30.13,30.05,10,0,10,0.00
2014-3-24,73.2,57.0,46.5,54.2,48.2,43.6,96,75,39,30.09,29.98,8,0,12,0.00
2014-3-25,67.3,54.3,44.2,54.5,49.7,43.0,98,86,50,30.01,29.84,14,1,15,0.01
2014-3-26,61.5,54.3,50.2,56.7,51.8,49.6,99,92,68,29.95,29.80,14,2,20,0.51
2014-3-27,63.9,54.9,49.8,53.3,50.4,47.1,98,86,59,30.11,29.94,12,1,12,0.01
2014-3-28,69.8,56.9,48.9,55.6,51.2,47.8,97,83,49,30.16,30.09,11,1,13,0.00
2014-3-29,66.0,54.5,48.0,57.3,51.9,47.5,99,92,65,30.14,29.97,17,1,17,0.63
2014-3-30,61.6,52.4,43.5,53.2,47.7,43.2,99,85,59,30.09,29.99,14,1,15,0.02
2014-3-31,61.5,48.6,40.3,49.4,44.7,39.8,99,88,49,30.05,29.80,18,0,19,0.35
2014-4-1,61.5,48.3,41.5,51.2,44.9,41.0,99,90,56,29.93,29.81,12,1,18,0.88
2014-4-2,63.4,51.1,41.9,49.5,45.3,41.2,99,83,50,30.07,29.85,13,1,13,0.02
2014-4-3,66.0,52.8,43.1,48.9,45.3,42.0,97,78,48,30.07,30.01,11,1,15,0.00
2014-4-4,61.3,52.5,46.1,51.6,46.9,43.0,96,82,56,30.02,29.94,20,2,20,0.02
2014-4-5,67.1,54.7,44.9,52.8,48.1,43.2,97,80,56,30.16,30.00,12,1,12,0.00
2014-4-6,76.5,58.7,45.4,56.3,50.3,44.3,97,77,45,30.17,30.05,5,0,9,0.01
2014-4-7,85.3,66.1,51.7,58.8,53.0,48.9,93,67,33,30.09,30.02,11,1,11,0.00
2014-4-8,83.0,61.6,50.7,60.6,53.8,49.9,98,79,41,30.06,30.00,10,0,12,0.00
2014-4-9,74.6,57.9,50.7,58.8,52.8,50.2,99,85,54,30.05,29.95,11,0,11,0.00
2014-4-10,74.4,57.2,46.4,57.8,51.7,45.7,99,84,54,30.00,29.88,10,1,12,0.00
2014-4-11,67.1,55.5,51.6,55.2,51.0,48.5,94,85,65,29.93,29.85,14,2,14,0.00
2014-4-12,65.2,56.3,53.1,51.3,48.9,47.0,86,77,60,29.92,29.84,18,2,18,0.00
2014-4-13,70.9,57.9,53.8,54.9,50.6,48.7,88,77,55,30.02,29.92,9,1,13,0.00
2014-4-14,74.2,56.9,46.8,59.2,52.1,45.7,98,85,58,30.07,29.98,11,1,11,0.00
2014-4-15,67.8,56.8,51.6,56.5,52.0,48.5,96,85,60,30.03,29.88,14,1,15,0.00
2014-4-16,75.8,58.6,47.6,57.8,51.4,46.3,97,79,49,29.89,29.78,13,0,13,0.00
2014-4-17,64.7,54.9,48.2,53.8,50.6,46.4,97,86,67,29.88,29.76,12,1,14,0.00
2014-4-18,67.1,55.0,48.9,54.7,50.1,46.9,96,84,64,29.93,29.83,16,1,16,0.00
2014-4-19,69.8,57.7,49.8,53.2,50.3,47.0,96,78,51,30.10,29.91,13,1,13,0.00
2014-4-20,81.4,61.0,47.7,57.6,51.3,46.3,98,74,39,30.09,30.01,8,1,11,0.00
2014-4-21,76.3,58.3,46.0,53.5,47.6,40.6,94,71,33,30.05,29.92,16,1,16,0.00
2014-4-22,67.6,56.7,46.4,52.4,44.5,32.0,97,67,31,30.08,29.93,16,1,16,0.06
2014-4-23,69.4,55.0,40.5,48.1,43.2,38.2,93,67,40,30.09,30.02,8,1,12,0.00
2014-4-24,72.0,57.2,45.4,55.3,49.8,43.2,94,78,52,30.07,29.94,17,1,17,0.00
2014-4-25,59.8,53.8,48.6,55.2,50.8,44.3,99,90,73,29.95,29.76,19,2,19,0.25
2014-4-26,62.0,52.7,42.6,47.2,44.7,41.0,96,75,53,30.06,29.81,11,1,16,0.01
2014-4-27,67.1,55.0,44.8,54.8,48.4,42.7,95,79,63,30.10,30.01,14,1,14,0.00
2014-4-28,72.3,57.8,43.1,53.4,48.0,42.0,98,73,46,30.15,30.07,11,0,11,0.00
2014-4-29,88.0,67.2,49.8,53.6,46.7,41.0,85,53,24,30.14,30.00,12,1,12,0.00
2014-4-30,93.4,72.5,57.0,51.1,45.7,37.9,73,42,16,30.03,29.98,14,1,17,0.00
2014-5-1,94.5,72.8,58.0,53.6,44.1,38.6,70,38,17,30.05,29.97,11,1,13,0.00
2014-5-2,85.1,65.8,50.7,56.7,47.7,41.1,92,56,24,30.04,29.95,9,1,12,0.00
2014-5-3,73.0,58.6,47.6,58.5,51.1,46.5,96,78,53,30.00,29.92,11,1,13,0.00
2014-5-4,71.3,58.5,46.4,54.2,50.1,45.0,96,76,53,30.01,29.95,13,1,13,0.00
2014-5-5,67.6,57.8,50.5,53.0,48.7,42.7,94,73,52,30.01,29.89,23,2,23,0.00
2014-5-6,66.4,55.8,43.9,50.2,45.8,41.2,91,71,49,29.92,29.83,12,1,15,0.00
2014-5-7,61.5,54.3,49.4,50.2,47.5,45.8,90,78,62,29.99,29.88,14,1,14,0.00
2014-5-8,68.4,57.6,47.4,57.3,51.1,45.7,97,80,53,30.07,29.98,11,1,11,0.02
2014-5-9,70.3,60.7,51.6,59.9,53.0,-99.9,99,79,49,30.12,30.05,16,-2,16,0.01
2014-5-10,70.9,57.7,43.9,50.0,45.4,37.8,97,67,34,30.11,29.94,21,2,21,0.00
2014-5-11,80.9,62.0,42.9,48.7,42.3,34.9,96,56,22,30.03,29.94,14,1,14,0.00
2014-5-12,87.0,65.0,46.0,50.9,42.3,34.2,83,51,17,30.04,29.98,12,1,12,0.00
2014-5-13,96.6,73.2,52.2,49.1,39.7,32.4,84,35,13,30.10,30.01,18,1,18,0.00
2014-5-14,98.5,77.2,58.3,50.3,40.6,33.1,60,31,12,30.09,29.99,14,1,14,0.00
2014-5-15,95.9,74.9,58.1,50.5,43.3,35.9,63,36,15,30.05,29.98,12,0,12,0.00
2014-5-16,79.4,64.9,50.4,56.3,48.6,39.5,84,58,33,30.05,29.94,11,1,13,0.00
2014-5-17,71.5,60.6,52.3,55.4,52.1,50.0,93,75,50,29.98,29.91,14,1,14,0.00
2014-5-18,74.0,60.8,47.9,55.0,50.9,46.0,96,72,48,29.95,29.88,15,1,15,0.00
2014-5-19,68.9,58.0,47.7,53.8,50.6,46.1,96,77,55,29.94,29.89,20,2,20,0.00
2014-5-20,67.1,58.0,50.8,53.2,51.5,48.8,95,80,56,29.99,29.91,17,2,17,0.00
2014-5-21,62.3,56.7,54.2,53.3,52.0,50.9,93,85,71,29.97,29.92,13,1,13,0.00
2014-5-22,68.8,58.1,53.5,54.5,52.4,51.0,93,82,59,30.01,29.89,14,2,14,0.00
2014-5-23,68.1,58.2,53.8,56.1,53.4,51.9,96,85,64,30.00,29.94,11,1,16,0.00
2014-5-24,68.6,58.8,53.9,56.1,53.0,50.6,92,82,63,29.98,29.91,15,1,15,0.00
2014-5-25,76.3,62.0,52.3,57.2,52.0,47.0,96,72,46,29.96,29.87,11,1,11,0.00
2014-5-26,83.8,64.5,47.4,57.2,51.3,45.0,94,66,32,29.99,29.92,15,1,15,0.00
2014-5-27,75.8,60.7,47.3,56.6,49.2,45.5,95,69,37,30.00,29.93,15,1,15,0.00
2014-5-28,80.7,62.3,44.3,49.2,45.0,40.1,93,59,26,29.99,29.88,11,1,11,0.00
2014-5-29,83.0,63.4,48.5,50.0,45.4,41.6,89,57,25,29.91,29.86,13,1,13,0.00
2014-5-30,68.8,56.4,46.8,52.2,49.3,44.9,95,78,55,29.94,29.88,15,2,15,0.00
2014-5-31,69.8,56.9,48.9,53.1,50.6,46.6,94,81,55,29.94,29.89,14,1,14,0.00
2014-6-1,70.8,56.4,48.6,54.6,51.0,47.8,98,84,54,29.91,29.80,13,2,13,0.00
2014-6-2,64.2,55.9,50.5,53.4,51.6,49.7,97,86,65,29.89,29.82,16,2,17,0.01
2014-6-3,67.8,56.8,52.0,53.5,51.3,50.0,95,83,59,29.91,29.85,15,2,15,0.01
2014-6-4,72.0,57.3,49.9,55.6,51.8,49.0,98,84,54,29.88,29.82,11,1,12,0.00
2014-6-5,68.3,56.8,50.4,55.5,52.6,49.9,99,87,63,29.85,29.80,14,2,14,0.00
2014-6-6,69.1,58.0,51.6,55.6,52.8,51.0,99,84,59,29.83,29.78,16,2,16,0.01
2014-6-7,69.8,58.0,52.3,55.4,52.4,50.6,95,83,59,29.83,29.78,14,2,14,0.00
2014-6-8,79.8,62.5,51.4,60.8,54.7,50.8,98,78,50,29.79,29.73,12,0,12,0.00
2014-6-9,72.1,60.0,52.2,58.4,54.9,51.5,99,84,61,29.75,29.70,11,2,16,0.00
2014-6-10,67.6,59.3,54.4,57.2,55.1,53.8,98,87,68,29.83,29.71,19,4,19,0.00
2014-6-11,66.6,60.0,56.0,56.0,55.0,53.6,96,84,67,29.89,29.81,20,4,20,0.00
2014-6-12,69.6,60.0,55.0,54.9,53.0,51.5,92,79,57,29.95,29.88,15,2,15,0.00
2014-6-13,75.1,60.9,48.6,55.7,51.8,47.5,97,75,45,29.95,29.88,12,1,12,0.00
2014-6-14,83.0,62.9,47.4,56.9,51.8,46.0,97,71,38,29.91,29.81,16,1,16,0.00
2014-6-15,59.0,56.3,53.2,52.7,51.3,50.0,91,83,75,29.85,29.78,13,1,13,0.00
2014-6-16,65.5,58.0,51.6,53.0,51.0,48.2,91,78,60,29.91,29.83,11,2,21,0.00
2014-6-17,73.2,60.5,50.8,53.2,49.5,46.7,90,70,41,29.90,29.87,14,1,16,0.00
2014-6-18,82.8,62.4,46.0,56.7,49.6,43.8,93,68,28,29.93,29.86,15,1,15,0.00
2014-6-19,76.5,62.4,48.2,57.9,52.3,46.0,97,72,48,29.97,29.89,17,2,17,0.00
2014-6-20,83.0,63.1,50.7,58.4,52.9,49.6,98,73,35,29.95,29.88,13,1,13,0.00
2014-6-21,73.0,58.4,49.8,54.6,51.3,48.0,96,79,48,29.91,29.86,15,1,15,0.00
2014-6-22,67.9,57.2,48.6,54.8,51.5,47.2,96,82,60,29.93,29.87,13,1,16,0.00
2014-6-23,73.0,60.3,52.8,56.2,52.5,49.2,91,77,54,29.95,29.89,16,1,16,0.00
2014-6-24,73.0,61.1,48.9,56.7,53.3,47.5,96,77,55,29.99,29.93,17,2,17,0.00
2014-6-25,73.3,62.3,55.7,59.7,56.3,53.9,95,82,62,29.97,29.90,17,1,17,0.00
2014-6-26,73.9,63.4,58.1,60.4,56.7,54.8,95,80,54,29.97,29.92,11,1,14,0.00
2014-6-27,79.6,64.8,53.2,60.5,56.8,51.8,96,77,47,29.95,29.89,16,1,16,0.00
2014-6-28,79.8,67.0,57.8,60.8,56.5,51.9,93,72,44,29.93,29.87,15,1,15,0.00
2014-6-29,82.6,65.7,51.1,59.5,53.6,49.0,94,68,37,29.92,29.80,13,1,13,0.00
2014-6-30,75.3,62.0,53.2,58.5,54.5,50.9,94,78,53,29.83,29.78,21,2,21,0.00
2014-7-1,68.8,60.0,55.1,57.3,55.2,53.9,96,85,66,29.84,29.78,19,3,19,0.00
2014-7-2,67.9,59.3,56.9,57.0,55.1,54.2,93,86,68,29.90,29.81,17,1,17,0.00
2014-7-3,71.5,60.4,53.2,57.0,54.7,50.9,95,82,60,29.93,29.87,15,1,15,0.00
2014-7-4,72.3,59.2,51.0,58.3,53.9,49.6,98,84,57,29.97,29.86,15,1,15,0.00
2014-7-5,79.0,60.8,51.4,58.1,53.7,50.6,99,80,45,30.03,29.97,12,1,12,0.00
2014-7-6,79.4,61.4,50.5,59.2,54.0,50.0,99,79,44,30.00,29.92,13,1,13,0.00
2014-7-7,77.4,60.9,53.1,59.5,54.6,51.2,97,82,48,29.92,29.85,12,1,12,0.00
2014-7-8,71.6,60.5,54.4,57.9,55.2,53.0,96,84,59,29.92,29.85,16,2,16,0.00
2014-7-9,69.6,60.3,56.0,58.2,56.2,54.6,98,87,67,29.94,29.88,18,3,18,0.01
2014-7-10,70.8,61.4,56.7,58.9,57.1,56.0,99,87,64,29.94,29.88,18,3,18,0.02
2014-7-11,74.4,62.8,56.9,58.3,57.1,56.0,99,83,57,30.03,29.92,16,2,16,0.02
2014-7-12,77.6,64.8,56.2,60.6,56.9,53.4,91,77,55,30.03,30.00,14,1,14,0.00
2014-7-13,79.8,65.2,53.2,61.3,56.5,51.6,97,76,50,30.00,29.85,13,1,13,0.00
2014-7-14,69.8,63.0,55.7,59.1,56.9,53.4,94,81,65,29.92,29.81,17,1,17,0.00
2014-7-15,75.8,65.4,58.6,64.1,60.2,56.0,92,84,67,29.97,29.90,20,3,20,0.00
2014-7-16,73.3,64.4,60.4,63.1,60.4,56.8,100,88,67,30.01,29.94,18,3,18,0.02
2014-7-17,73.9,65.2,59.0,59.9,58.7,56.7,94,80,61,29.99,29.94,19,3,19,0.00
2014-7-18,76.3,65.9,59.6,60.7,57.9,56.0,90,76,57,29.99,29.92,17,2,17,0.00
2014-7-19,74.4,65.3,59.6,61.1,58.2,56.0,90,79,61,29.94,29.90,16,2,16,0.00
2014-7-20,77.6,67.7,60.7,61.6,59.8,57.0,93,77,57,29.97,29.88,19,2,19,0.00
2014-7-21,74.0,67.9,60.7,61.6,59.4,56.6,88,75,64,30.03,29.94,18,2,18,0.00
2014-7-22,76.7,65.8,58.6,61.0,58.8,56.6,94,79,55,30.08,30.00,20,2,20,0.00
2014-7-23,82.8,68.0,56.0,63.2,59.4,55.0,98,76,48,30.09,30.00,14,1,14,0.00
2014-7-24,84.3,68.1,55.7,64.4,58.7,54.5,97,75,47,30.01,29.81,14,1,14,0.00
2014-7-25,85.9,67.6,55.9,63.9,58.6,53.7,95,76,43,29.88,29.79,14,1,14,0.00
2014-7-26,82.8,66.1,56.9,64.3,59.2,55.5,98,81,50,29.94,29.86,14,1,14,0.00
2014-7-27,79.8,66.5,59.6,63.4,59.6,57.0,95,80,51,29.98,29.91,14,1,14,0.01
2014-7-28,80.3,68.3,60.2,61.5,59.3,57.6,92,75,51,30.03,29.95,15,1,15,0.00
2014-7-29,81.4,68.1,59.8,64.0,60.1,57.3,93,77,50,30.02,29.96,13,1,13,0.00
2014-7-30,82.4,66.6,59.6,63.5,59.6,57.6,95,80,50,29.97,29.92,13,1,13,0.00
2014-7-31,80.9,65.2,58.6,63.4,59.4,57.5,97,83,53,29.95,29.87,12,1,12,0.00
2014-8-1,79.2,64.2,57.0,62.7,59.0,56.4,98,85,56,29.90,29.85,12,1,12,0.00
2014-8-2,79.6,64.2,58.0,63.4,58.7,56.7,97,84,53,29.92,29.86,17,1,17,0.00
2014-8-3,73.0,62.7,58.4,59.9,57.4,55.6,96,84,62,29.94,29.90,17,1,17,0.00
2014-8-4,73.3,63.4,59.2,59.6,56.9,55.0,88,80,61,29.97,29.90,17,2,17,0.00
2014-8-5,77.6,66.1,60.9,62.0,59.0,56.7,91,79,58,30.03,29.96,11,1,13,0.00
2014-8-6,78.1,64.1,59.9,64.3,60.2,57.9,96,88,59,30.01,29.95,15,1,15,0.00
2014-8-7,73.2,62.9,58.7,61.3,58.6,56.4,97,87,65,29.95,29.89,15,1,15,0.00
2014-8-8,73.7,63.1,55.9,59.5,57.0,53.6,94,81,59,29.91,29.87,14,1,14,0.00
2014-8-9,70.8,61.9,55.6,58.3,56.3,53.7,95,83,63,29.96,29.88,16,2,16,0.00
2014-8-10,72.3,63.2,57.8,59.0,56.9,54.9,93,81,62,29.99,29.91,14,1,14,0.00
2014-8-11,76.0,65.3,59.6,60.0,57.5,56.0,89,77,54,29.93,29.88,17,1,17,0.00
2014-8-12,75.6,65.9,61.2,59.3,57.4,55.7,87,75,54,29.95,29.89,14,2,14,0.00
2014-8-13,78.8,66.9,60.2,61.0,58.3,55.0,90,75,49,29.97,29.91,14,1,14,0.00
2014-8-14,73.9,64.1,59.3,62.4,59.4,57.3,96,85,65,29.95,29.89,11,1,15,0.00
2014-8-15,76.3,64.1,57.6,61.5,58.5,56.6,98,83,59,29.98,29.92,13,1,13,0.00
2014-8-16,79.2,64.9,58.1,60.8,57.7,56.0,95,79,52,30.01,29.96,14,1,14,0.00
2014-8-17,77.0,63.3,56.9,60.5,57.3,54.9,95,82,52,30.00,29.91,13,1,13,0.00
2014-8-18,73.2,62.5,58.4,60.7,57.9,56.3,95,86,63,29.91,29.81,12,1,17,0.00
2014-8-19,70.4,62.4,58.4,60.2,58.6,57.0,97,88,68,29.86,29.81,17,2,17,0.01
2014-8-20,73.2,65.2,62.0,59.5,57.6,56.5,85,77,61,29.92,29.83,18,2,18,0.00
2014-8-21,78.5,66.4,60.9,61.7,58.4,56.0,89,77,55,29.92,29.88,13,1,13,0.00
2014-8-22,73.3,64.0,59.3,61.5,58.7,56.7,93,84,61,29.93,29.89,12,2,16,0.00
2014-8-23,74.0,64.5,59.5,58.8,56.9,55.0,89,77,57,29.94,29.85,17,2,17,0.00
2014-8-24,76.0,65.5,59.8,58.7,57.1,56.0,89,75,53,29.89,29.81,15,1,15,0.00
2014-8-25,74.6,65.1,58.9,57.4,56.1,53.8,90,74,53,29.94,29.83,18,2,18,0.00
2014-8-26,78.8,64.5,52.9,59.0,55.8,50.9,94,75,50,29.99,29.92,17,1,17,0.00
2014-8-27,84.9,66.4,53.8,63.6,58.0,53.0,98,78,44,30.03,29.97,19,1,19,0.00
2014-8-28,80.1,66.2,60.7,63.0,59.6,57.0,94,81,54,30.03,29.92,18,1,18,0.00
2014-8-29,80.7,65.5,58.7,64.0,59.9,57.6,97,83,56,29.94,29.85,14,0,14,0.00
2014-8-30,86.5,68.1,57.8,64.4,59.1,54.3,95,76,34,29.88,29.83,15,1,15,0.00
2014-8-31,80.3,65.7,57.5,63.7,59.3,56.1,96,81,54,29.89,29.82,15,1,15,0.00
2014-9-1,84.3,66.1,55.7,63.4,59.3,54.6,98,81,49,29.82,29.75,13,1,13,0.00
2014-9-2,72.3,62.9,59.8,60.3,58.9,57.8,96,87,66,29.84,29.77,13,1,15,0.00
2014-9-3,73.5,63.2,59.0,59.9,58.0,56.5,96,84,61,29.78,29.69,18,1,18,0.00
2014-9-4,71.1,62.5,59.3,59.8,57.9,56.0,94,85,67,29.78,29.68,14,2,14,0.00
2014-9-5,73.2,62.9,56.6,59.2,56.8,53.6,91,81,60,29.89,29.78,13,1,15,0.00
2014-9-6,76.3,62.3,54.7,60.0,56.1,52.4,94,81,56,29.92,29.85,15,1,15,0.00
2014-9-7,75.4,59.7,49.4,59.9,54.7,48.6,99,85,58,29.86,29.77,14,1,14,0.00
2014-9-8,73.9,60.9,52.2,57.7,54.7,50.3,96,81,56,29.91,29.80,13,1,14,0.01
2014-9-9,77.4,60.4,49.8,59.0,54.6,48.8,98,83,53,29.95,29.87,11,0,11,0.00
2014-9-10,86.5,63.3,53.9,62.7,56.8,53.0,99,83,41,29.90,29.83,12,0,14,0.00
2014-9-11,81.1,62.8,51.0,62.4,56.5,49.9,98,82,52,29.86,29.81,12,0,12,0.00
2014-9-12,79.2,63.8,56.6,62.3,58.5,55.5,98,85,55,29.86,29.78,11,0,12,0.00
2014-9-13,78.1,63.8,58.6,63.1,58.9,57.0,97,85,57,29.82,29.77,12,1,15,0.00
2014-9-14,78.5,65.5,58.0,62.2,58.8,55.8,95,81,56,29.83,29.77,11,1,11,0.00
2014-9-15,82.2,66.7,58.1,63.7,58.2,53.8,96,77,44,29.90,29.79,14,1,15,0.00
2014-9-16,87.4,66.2,53.5,61.1,56.1,50.9,92,74,36,29.90,29.77,11,0,14,0.00
2014-9-17,81.8,65.7,55.6,62.3,58.8,54.5,97,80,44,29.79,29.75,13,1,17,0.00
2014-9-18,77.6,67.8,63.2,68.5,64.1,61.7,99,89,65,29.86,29.76,11,1,13,0.06
2014-9-19,80.9,68.4,63.1,64.9,61.9,60.8,94,81,55,29.88,29.83,13,1,13,0.00
2014-9-20,72.8,64.0,61.5,62.9,60.7,59.0,96,89,69,29.92,29.84,14,1,15,0.00
2014-9-21,75.8,65.8,62.1,61.7,59.8,58.2,90,82,61,29.98,29.91,15,1,15,0.00
2014-9-22,80.5,68.2,59.3,63.7,60.3,57.3,94,77,54,30.00,29.92,11,0,13,0.00
2014-9-23,81.2,65.8,54.8,63.6,59.8,54.0,98,83,52,29.95,29.89,12,1,13,0.01
2014-9-24,80.7,67.5,59.5,64.6,62.3,58.4,98,85,53,29.94,29.87,17,1,17,0.01
2014-9-25,73.9,64.9,58.7,64.9,61.4,57.8,99,89,63,29.98,29.85,12,0,12,0.30
2014-9-26,74.9,63.4,54.2,61.8,57.1,53.5,100,82,56,29.96,29.86,15,1,16,0.00
2014-9-27,70.9,61.5,52.9,60.7,56.4,52.1,98,84,64,29.90,29.82,13,1,15,0.00
2014-9-28,71.1,63.1,59.0,59.8,58.1,56.0,95,84,65,29.91,29.80,11,0,11,0.00
2014-9-29,76.1,63.9,55.7,61.6,57.9,54.6,99,83,56,29.98,29.91,10,1,11,0.01
2014-9-30,74.2,61.2,54.4,60.9,57.0,53.4,98,87,61,29.95,29.80,9,0,10,0.00
2014-10-1,89.0,68.5,53.5,57.2,50.4,39.6,99,60,26,29.88,29.78,8,0,10,0.01
2014-10-2,97.1,73.6,56.5,46.0,41.5,37.9,55,35,14,29.97,29.88,12,1,12,0.00
2014-10-3,99.4,76.8,61.8,54.0,43.8,34.5,71,35,11,30.02,29.93,11,1,12,0.00
2014-10-4,101.7,77.5,62.0,56.7,45.4,34.8,74,37,11,29.98,29.86,10,1,11,0.00
2014-10-5,93.6,73.1,57.2,59.5,47.5,37.0,95,46,20,29.90,29.84,7,0,8,0.00
2014-10-6,92.3,66.4,49.5,59.2,51.3,45.6,96,67,22,29.86,29.80,9,0,9,0.00
2014-10-7,83.4,62.2,50.7,59.8,55.1,50.2,99,81,38,29.87,29.80,12,0,12,0.00
2014-10-8,80.5,62.9,51.7,60.6,55.9,51.4,99,81,45,29.87,29.80,7,0,7,0.00
2014-10-9,77.6,59.9,50.1,61.6,55.1,49.6,99,86,50,29.95,29.86,13,0,13,0.01
2014-10-10,74.2,61.9,54.5,59.0,56.1,52.8,96,83,58,30.02,29.95,11,1,11,0.00
2014-10-11,76.5,60.3,51.7,60.0,55.1,50.9,98,85,56,30.01,29.93,10,0,10,0.00
2014-10-12,92.7,70.9,52.5,56.2,45.9,34.0,97,50,13,29.93,29.83,11,0,11,0.00
2014-10-13,79.9,65.1,56.0,61.0,46.4,28.5,91,56,24,29.93,29.86,16,1,16,0.00
2014-10-14,75.6,65.3,59.9,59.1,57.0,52.8,92,76,53,29.92,29.78,17,1,17,0.00
2014-10-15,74.0,62.3,55.6,62.1,57.7,52.4,98,86,60,29.99,29.83,11,0,11,0.18
2014-10-16,74.7,60.6,52.6,58.4,54.6,51.0,99,83,50,29.99,29.91,12,1,12,0.01
2014-10-17,74.9,59.6,48.5,54.5,50.7,46.6,97,75,44,29.95,29.89,12,0,12,0.00
2014-10-18,82.2,64.1,52.5,58.7,53.1,47.9,91,71,35,29.94,29.82,11,0,11,0.00
2014-10-19,79.6,63.3,54.1,60.5,56.9,51.8,95,81,49,29.88,29.81,11,1,11,0.00
2014-10-20,72.1,61.6,52.5,61.8,58.6,51.4,98,90,65,30.02,29.87,11,0,12,0.03
2014-10-21,72.7,58.6,47.4,56.7,50.8,46.9,100,78,48,30.05,29.94,9,0,11,0.01
2014-10-22,79.4,62.9,52.6,56.6,51.2,47.6,88,68,34,30.02,29.94,13,0,13,0.00
2014-10-23,79.8,63.2,52.8,59.9,55.0,50.0,96,77,42,30.02,29.91,8,0,8,0.00
2014-10-24,72.1,59.3,49.5,60.7,55.4,48.7,99,88,63,29.94,29.88,15,1,15,0.00
2014-10-25,70.8,60.7,55.7,63.0,57.3,52.9,98,89,66,30.09,29.89,11,0,11,0.27
2014-10-26,72.8,58.8,49.8,58.6,49.8,43.0,100,76,35,30.11,29.99,8,0,10,0.01
2014-10-27,72.1,56.8,45.7,54.2,49.5,44.7,98,79,43,30.01,29.94,6,0,9,0.00
2014-10-28,79.4,60.6,49.4,53.8,49.0,42.7,94,70,30,30.06,29.99,10,1,10,0.00
2014-10-29,84.7,67.0,54.5,54.9,48.3,44.6,81,55,26,30.06,29.91,16,1,16,0.00
2014-10-30,73.0,63.1,55.9,57.6,52.1,45.5,90,68,50,29.93,29.85,10,1,14,0.00
2014-10-31,65.8,58.7,52.6,59.6,56.6,52.0,99,93,77,29.88,29.68,10,0,10,0.81
2014-11-1,63.4,53.6,47.9,57.3,52.4,47.6,100,96,68,29.99,29.71,8,0,8,0.24
2014-11-2,68.1,52.1,44.9,55.5,49.0,44.8,100,90,59,30.13,29.99,12,0,12,0.01
2014-11-3,71.5,53.7,43.9,53.3,47.9,43.3,99,83,47,30.22,30.12,7,0,9,0.01
2014-11-4,72.7,59.0,46.5,50.5,47.6,44.0,95,69,38,30.25,30.16,14,1,14,0.00
2014-11-5,81.2,63.6,53.3,51.8,46.5,41.0,76,57,27,30.19,30.00,17,1,17,0.00
2014-11-6,75.4,59.9,49.5,56.8,51.3,46.2,96,75,45,30.16,30.08,9,0,9,0.00
2014-11-7,77.2,60.0,51.3,59.3,54.3,50.3,98,84,51,30.17,30.03,12,0,12,0.01
2014-11-8,84.1,65.2,51.7,57.8,54.1,51.0,99,70,33,30.05,29.94,12,0,12,0.00
2014-11-9,78.3,59.9,51.9,58.8,53.6,49.0,98,82,49,29.97,29.78,10,0,10,0.00
2014-11-10,60.9,55.4,48.8,55.7,53.1,48.3,100,92,82,29.83,29.75,14,1,14,0.00
2014-11-11,62.6,58.7,55.3,54.9,52.7,49.4,94,81,70,29.92,29.82,10,0,10,0.00
2014-11-12,67.4,58.1,53.8,52.7,50.2,47.9,89,76,53,29.98,29.92,10,0,10,0.00
2014-11-13,60.9,57.4,53.5,60.9,57.0,50.3,100,99,82,30.03,29.91,4,0,7,0.24
2014-11-14,67.6,57.5,51.4,59.6,55.1,51.4,100,93,67,30.07,30.01,9,0,9,0.01
2014-11-15,68.1,54.6,46.7,56.0,51.2,46.7,100,89,62,30.13,30.04,8,0,8,0.01
2014-11-16,65.8,55.5,46.0,50.5,40.2,25.2,99,62,30,30.20,30.10,10,1,10,0.01
2014-11-17,68.4,56.9,48.8,43.0,36.8,26.5,65,47,37,30.19,30.03,19,2,19,0.00
2014-11-18,74.7,59.5,47.4,48.1,40.5,36.1,75,51,26,30.08,29.98,12,0,13,0.00
2014-11-19,66.3,56.7,51.3,56.7,48.9,37.4,100,77,38,30.08,29.97,9,0,9,0.09
2014-11-20,58.7,56.1,51.3,58.6,55.9,51.0,100,99,96,30.08,29.94,6,0,6,0.26
2014-11-21,67.1,54.6,48.5,56.9,52.4,48.5,100,93,66,30.11,29.98,7,0,7,0.00
2014-11-22,62.3,55.7,50.2,62.3,55.4,49.6,100,99,97,30.18,30.05,6,0,6,0.16
2014-11-23,65.5,53.5,44.9,53.3,46.4,40.5,100,79,52,30.27,30.16,14,1,14,0.01
2014-11-24,67.8,54.4,44.8,45.5,41.5,37.9,85,63,38,30.36,30.25,11,1,14,0.00
2014-11-25,72.5,58.2,46.8,46.6,41.3,37.0,74,55,32,30.38,30.25,14,2,15,0.00
2014-11-26,80.3,60.7,52.8,50.9,42.0,36.2,73,52,27,30.25,30.12,14,2,14,0.00
2014-11-27,76.5,56.5,44.3,51.3,45.2,40.8,92,69,36,30.14,30.00,5,0,7,0.00
2014-11-28,69.8,50.9,37.5,51.9,43.4,35.4,96,79,37,30.01,29.84,9,0,9,0.01
2014-11-29,56.2,53.4,50.4,55.3,52.1,48.0,99,95,90,29.84,29.67,12,0,12,0.21
2014-11-30,63.5,54.8,48.3,59.9,53.9,48.0,100,97,83,29.97,29.69,5,0,12,0.16
2014-12-1,69.1,57.4,50.1,61.6,55.3,49.8,100,93,76,30.05,29.86,10,0,10,0.01
2014-12-2,60.4,56.5,54.7,58.0,55.4,53.7,100,96,79,29.86,29.63,20,2,20,0.97
2014-12-3,63.7,59.6,56.5,63.4,59.5,56.5,100,100,97,29.86,29.68,7,0,9,0.61
2014-12-4,66.3,59.1,54.2,64.0,58.4,54.0,100,98,80,29.99,29.84,5,0,5,0.00
2014-12-5,66.3,60.1,56.0,61.2,58.9,56.0,100,96,81,30.07,29.95,12,0,12,0.43
2014-12-6,67.8,58.5,54.1,62.6,57.0,53.8,100,95,75,30.18,30.05,9,0,9,0.01
2014-12-7,61.2,56.0,50.1,57.3,54.5,49.8,100,95,86,30.18,30.10,9,0,9,0.01
2014-12-8,72.0,56.4,48.0,58.8,52.8,48.0,100,89,57,30.15,30.07,6,0,8,0.01
2014-12-9,66.4,56.1,48.9,58.7,53.8,48.6,100,92,71,30.14,30.01,7,0,7,0.01
2014-12-10,61.5,54.8,49.8,57.7,53.4,49.8,100,95,86,30.02,29.75,9,0,9,0.01
2014-12-11,66.8,56.1,49.8,58.4,53.5,49.8,100,92,67,29.76,29.56,17,1,17,3.38
2014-12-12,53.9,50.3,45.5,53.9,50.3,45.5,100,100,100,30.02,29.59,0,0,4,0.28
2014-12-13,61.0,48.1,41.3,52.8,45.9,41.3,100,93,67,30.16,30.03,6,0,8,0.01
2014-12-14,62.0,51.1,45.4,50.4,45.8,43.0,92,83,59,30.09,29.92,8,0,8,0.00
2014-12-15,52.6,50.8,48.8,52.3,49.7,44.8,100,96,76,29.93,29.78,10,0,14,1.29
2014-12-16,63.2,52.5,47.9,57.8,51.0,47.9,100,95,60,29.94,29.80,12,0,12,0.39
2014-12-17,57.0,49.8,44.2,55.9,49.1,44.2,100,98,80,30.05,29.89,7,0,8,0.12
2014-12-18,62.0,52.8,49.1,54.3,50.7,48.8,100,93,74,30.15,30.02,11,0,11,0.02
2014-12-19,57.8,53.2,49.5,54.9,52.3,49.3,100,97,83,30.17,30.08,2,0,7,0.08
2014-12-20,61.2,56.7,54.1,58.9,55.6,53.3,100,96,84,30.23,30.06,6,0,6,0.22
2014-12-21,65.3,58.0,54.2,59.6,56.5,54.0,100,95,80,30.27,30.20,6,0,6,0.00
2014-12-22,64.3,57.3,53.1,58.9,55.5,53.1,100,94,77,30.22,30.11,13,1,13,0.01
2014-12-23,69.9,58.8,51.7,57.5,53.9,50.9,98,85,62,30.16,30.06,11,1,11,0.00
2014-12-24,61.5,52.0,46.8,55.2,48.9,40.7,99,89,76,30.06,29.89,18,1,18,0.03
2014-12-25,59.0,50.2,43.8,40.8,34.2,28.3,77,56,36,30.04,29.94,16,1,16,0.00
2014-12-26,59.5,45.9,36.2,37.7,33.1,28.2,86,63,31,30.19,29.99,5,0,9,0.00
2014-12-27,57.2,43.9,35.8,43.8,35.9,31.0,90,75,48,30.30,30.18,11,0,11,0.00
2014-12-28,61.5,46.2,39.8,44.5,38.7,35.7,93,76,47,30.28,30.16,11,0,11,0.00
2014-12-29,57.6,45.8,37.2,47.0,41.5,36.0,97,86,64,30.17,30.03,7,0,10,0.00
2014-12-30,54.5,45.9,36.6,38.6,26.4,10.7,95,54,23,30.07,29.96,27,4,30,0.01
2014-12-31,59.6,45.3,33.8,28.5,17.3,8.0,65,34,17,30.13,29.99,26,2,26,0.00
2015-1-1,60.2,41.3,30.7,36.0,27.1,22.3,74,59,31,30.09,29.99,12,0,12,0.00
2015-1-2,58.9,41.5,31.0,37.3,31.4,27.0,87,69,39,30.12,30.01,9,0,9,0.00